Time;durP1;ratioP1;P1;durP2;ratioP2;P2;SDS_P1;SDS_P2;PMS_P1;PMS_P2;Temp;Humidity;BMP_temperature;BMP_pressure;BME280_temperature;BME280_humidity;BME280_pressure;Samples;Min_cycle;Max_cycle;Signal;HPM_P1;HPM_P2
2023/09/28 00:00:35;;;;;;;4.50;4.10;;;18.80;92.00;;;;;;5065682;28;20434;-73
2023/09/28 00:02:45;;;;;;;4.60;4.20;;;18.80;91.80;;;;;;5071084;28;20589;-74
2023/09/28 00:05:13;;;;;;;6.22;4.15;;;18.80;91.80;;;;;;5071107;28;20413;-73
2023/09/28 00:07:39;;;;;;;4.20;3.80;;;18.80;91.60;;;;;;5069994;28;20436;-74
2023/09/28 00:10:08;;;;;;;4.00;3.70;;;18.80;91.70;;;;;;5064483;28;20470;-74
2023/09/28 00:12:35;;;;;;;4.97;4.10;;;18.80;91.80;;;;;;5070737;28;20415;-73
2023/09/28 00:15:02;;;;;;;4.43;4.03;;;18.80;91.70;;;;;;5079835;28;20433;-73
2023/09/28 00:17:28;;;;;;;4.55;4.03;;;18.80;91.70;;;;;;5068343;28;20455;-73
2023/09/28 00:19:54;;;;;;;4.05;3.65;;;18.80;91.70;;;;;;5071672;28;20958;-73
2023/09/28 00:22:20;;;;;;;4.90;3.90;;;18.80;91.50;;;;;;5069445;28;20442;-73
2023/09/28 00:24:47;;;;;;;4.27;3.87;;;18.80;91.60;;;;;;5065754;28;20419;-74
2023/09/28 00:27:13;;;;;;;4.53;3.72;;;18.80;91.50;;;;;;5064975;28;20506;-73
2023/09/28 00:29:41;;;;;;;4.15;3.80;;;18.80;91.60;;;;;;5071675;28;20776;-72
2023/09/28 00:32:07;;;;;;;4.00;3.70;;;18.80;91.60;;;;;;5069718;28;20431;-73
2023/09/28 00:34:34;;;;;;;4.13;3.83;;;18.90;92.20;;;;;;5067678;28;20426;-72
2023/09/28 00:37:00;;;;;;;4.32;3.72;;;18.90;92.20;;;;;;5075818;28;20540;-72
2023/09/28 00:39:27;;;;;;;3.90;3.60;;;18.90;92.20;;;;;;5074467;28;20507;-72
2023/09/28 00:41:53;;;;;;;4.10;3.80;;;18.90;91.90;;;;;;5068368;28;20409;-74
2023/09/28 00:44:21;;;;;;;4.40;4.00;;;18.90;91.60;;;;;;5069591;28;20442;-75
2023/09/28 00:46:48;;;;;;;4.40;4.10;;;18.90;91.90;;;;;;5070532;28;20435;-75
2023/09/28 00:49:17;;;;;;;4.80;3.90;;;18.80;92.00;;;;;;5067737;28;20433;-74
2023/09/28 00:51:44;;;;;;;4.37;3.90;;;18.80;92.90;;;;;;5065324;28;20784;-73
2023/09/28 00:54:13;;;;;;;4.20;3.80;;;18.80;93.00;;;;;;5070199;28;20796;-73
2023/09/28 00:56:40;;;;;;;4.20;3.80;;;18.80;92.70;;;;;;5078825;28;20433;-73
2023/09/28 00:59:06;;;;;;;4.50;3.70;;;18.80;93.40;;;;;;5070269;28;20531;-73
2023/09/28 01:01:32;;;;;;;4.80;4.10;;;18.80;93.40;;;;;;5068556;28;20454;-73
2023/09/28 01:04:04;;;;;;;4.60;4.20;;;18.80;93.80;;;;;;5067410;28;20872;-73
2023/09/28 01:06:30;;;;;;;4.18;3.88;;;18.80;93.80;;;;;;5069237;28;20434;-73
2023/09/28 01:08:57;;;;;;;4.28;3.88;;;18.70;93.30;;;;;;5065814;28;20920;-72
2023/09/28 01:11:24;;;;;;;4.10;3.70;;;18.70;92.70;;;;;;5072918;28;20900;-75
2023/09/28 01:13:52;;;;;;;4.15;3.78;;;18.70;92.50;;;;;;5071126;28;20431;-73
2023/09/28 01:16:19;;;;;;;4.75;4.15;;;18.70;92.60;;;;;;5063025;28;20499;-74
2023/09/28 01:18:46;;;;;;;4.45;4.05;;;18.70;92.60;;;;;;5065700;28;20912;-74
2023/09/28 01:21:13;;;;;;;4.00;3.70;;;18.70;92.80;;;;;;5064670;28;20928;-73
2023/09/28 01:23:41;;;;;;;4.32;3.78;;;18.70;92.80;;;;;;5067578;28;20428;-72
2023/09/28 01:26:07;;;;;;;4.60;4.00;;;18.70;92.70;;;;;;5063669;28;20446;-73
2023/09/28 01:28:34;;;;;;;4.00;3.60;;;18.60;92.50;;;;;;5072785;28;20426;-73
2023/09/28 01:31:01;;;;;;;4.10;3.70;;;18.60;92.40;;;;;;5069167;28;20509;-72
2023/09/28 01:33:28;;;;;;;4.00;3.60;;;18.60;92.70;;;;;;5069373;28;20506;-72
2023/09/28 01:35:53;;;;;;;4.22;3.80;;;18.60;92.80;;;;;;5071765;28;20495;-73
2023/09/28 01:38:25;;;;;;;4.28;3.88;;;18.50;92.90;;;;;;5063572;28;20919;-75
2023/09/28 01:40:52;;;;;;;4.10;3.80;;;18.60;92.90;;;;;;5077899;28;20429;-74
2023/09/28 01:43:19;;;;;;;4.20;3.90;;;18.50;92.80;;;;;;5067742;28;20495;-75
2023/09/28 01:45:45;;;;;;;4.20;3.90;;;18.50;93.00;;;;;;5067674;28;20523;-74
2023/09/28 01:48:12;;;;;;;4.50;4.10;;;18.50;92.80;;;;;;5066524;28;20865;-73
2023/09/28 01:50:38;;;;;;;4.13;3.70;;;18.50;93.10;;;;;;5072838;28;20442;-74
2023/09/28 01:53:04;;;;;;;5.15;4.40;;;18.50;93.30;;;;;;5076622;28;20421;-71
2023/09/28 01:55:30;;;;;;;4.50;4.10;;;18.50;93.20;;;;;;5066639;28;20440;-74
2023/09/28 01:57:58;;;;;;;4.50;3.92;;;18.50;93.00;;;;;;5066435;28;20434;-74
2023/09/28 02:00:25;;;;;;;4.45;4.05;;;18.50;92.90;;;;;;5078616;28;20445;-74
2023/09/28 02:02:53;;;;;;;4.40;4.00;;;18.40;93.00;;;;;;5077816;28;20423;-73
2023/09/28 02:05:21;;;;;;;4.50;4.10;;;18.50;93.00;;;;;;5070884;28;20431;-71
2023/09/28 02:07:48;;;;;;;4.47;4.07;;;18.40;92.90;;;;;;5073489;28;20424;-74
2023/09/28 02:10:14;;;;;;;5.27;3.80;;;18.40;92.90;;;;;;5073394;28;20911;-74
2023/09/28 02:12:43;;;;;;;4.20;3.90;;;18.40;93.00;;;;;;5064156;28;20549;-75
2023/09/28 02:15:14;;;;;;;4.70;3.90;;;18.40;93.10;;;;;;5070431;28;20832;-75
2023/09/28 02:17:41;;;;;;;4.00;3.70;;;18.40;93.10;;;;;;5068154;28;20490;-72
2023/09/28 02:20:09;;;;;;;4.90;3.95;;;18.40;93.20;;;;;;5071259;28;20547;-72
2023/09/28 02:22:35;;;;;;;4.03;3.60;;;18.40;93.30;;;;;;5067609;28;20806;-72
2023/09/28 02:25:02;;;;;;;3.95;3.65;;;18.40;93.40;;;;;;5064674;28;20434;-73
2023/09/28 02:27:29;;;;;;;4.20;3.65;;;18.40;93.60;;;;;;5069187;28;20428;-72
2023/09/28 02:29:55;;;;;;;3.70;3.40;;;18.40;93.40;;;;;;5076367;28;20880;-72
2023/09/28 02:32:23;;;;;;;4.17;3.80;;;18.40;93.60;;;;;;5072229;28;20421;-74
2023/09/28 02:34:49;;;;;;;4.30;3.90;;;18.40;93.70;;;;;;5071707;28;20444;-72
2023/09/28 02:37:16;;;;;;;4.00;3.70;;;18.40;93.40;;;;;;5075766;28;20422;-73
2023/09/28 02:39:43;;;;;;;3.92;3.63;;;18.50;93.50;;;;;;5077316;28;20431;-73
2023/09/28 02:42:09;;;;;;;4.38;3.80;;;18.40;93.50;;;;;;5071105;28;20485;-74
2023/09/28 02:44:35;;;;;;;4.10;3.80;;;18.40;93.80;;;;;;5071191;28;20526;-74
2023/09/28 02:47:04;;;;;;;4.80;4.30;;;18.30;94.20;;;;;;5075678;28;20908;-72
2023/09/28 02:49:32;;;;;;;4.13;3.73;;;18.30;94.10;;;;;;5074462;28;20544;-74
2023/09/28 02:51:59;;;;;;;3.70;3.40;;;18.30;94.30;;;;;;5072938;28;20449;-72
2023/09/28 02:54:25;;;;;;;3.90;3.60;;;18.30;94.60;;;;;;5079408;28;20844;-74
2023/09/28 02:56:53;;;;;;;4.17;3.77;;;18.30;95.00;;;;;;5070906;28;20508;-73
2023/09/28 02:59:22;;;;;;;4.25;3.85;;;18.20;95.00;;;;;;5077120;28;20742;-73
2023/09/28 03:01:49;;;;;;;4.90;4.40;;;18.20;95.20;;;;;;5072557;28;20426;-73
2023/09/28 03:04:15;;;;;;;4.40;4.00;;;18.10;95.40;;;;;;5075567;28;20443;-73
2023/09/28 03:06:44;;;;;;;4.65;3.90;;;18.10;95.80;;;;;;5071638;28;20450;-73
2023/09/28 03:09:11;;;;;;;4.13;3.58;;;18.10;95.90;;;;;;5070617;28;20549;-73
2023/09/28 03:11:39;;;;;;;4.10;3.80;;;18.00;95.70;;;;;;5070100;28;20419;-72
2023/09/28 03:14:05;;;;;;;4.00;3.60;;;18.00;96.00;;;;;;5073152;28;20429;-72
2023/09/28 03:16:32;;;;;;;4.47;4.10;;;18.00;96.10;;;;;;5073025;28;20431;-73
2023/09/28 03:18:58;;;;;;;4.05;3.75;;;17.90;96.10;;;;;;5067782;28;20422;-73
2023/09/28 03:21:25;;;;;;;4.55;4.05;;;17.90;96.30;;;;;;5071994;28;20431;-73
2023/09/28 03:23:52;;;;;;;4.20;3.80;;;17.80;96.90;;;;;;5070504;28;20437;-73
2023/09/28 03:26:20;;;;;;;4.43;4.03;;;17.80;96.80;;;;;;5066782;28;20884;-72
2023/09/28 03:28:45;;;;;;;4.50;4.10;;;17.80;96.60;;;;;;5071543;28;20728;-73
2023/09/28 03:31:12;;;;;;;4.50;4.10;;;17.80;96.40;;;;;;5079019;28;20708;-72
2023/09/28 03:33:38;;;;;;;4.47;4.07;;;17.80;96.60;;;;;;5072809;28;20451;-73
2023/09/28 03:36:06;;;;;;;4.40;4.00;;;17.80;96.90;;;;;;5076133;28;20487;-73
2023/09/28 03:38:33;;;;;;;4.40;4.00;;;17.80;96.70;;;;;;5071583;28;20432;-73
2023/09/28 03:41:01;;;;;;;4.43;4.10;;;17.70;97.30;;;;;;5063066;28;20416;-73
2023/09/28 03:43:29;;;;;;;4.45;4.10;;;17.70;96.80;;;;;;5069665;28;20423;-74
2023/09/28 03:45:55;;;;;;;4.60;4.20;;;17.70;96.80;;;;;;5069941;28;20560;-72
2023/09/28 03:48:22;;;;;;;5.10;4.13;;;17.60;96.90;;;;;;5074676;28;20509;-72
2023/09/28 03:50:49;;;;;;;5.03;4.63;;;17.60;96.60;;;;;;5073662;28;20430;-73
2023/09/28 03:53:15;;;;;;;4.22;3.92;;;17.60;96.80;;;;;;5067772;28;20431;-72
2023/09/28 03:55:43;;;;;;;4.70;4.30;;;17.50;96.90;;;;;;5070074;28;20775;-72
2023/09/28 03:58:11;;;;;;;4.90;4.50;;;17.50;97.10;;;;;;5070622;28;20488;-73
2023/09/28 04:00:37;;;;;;;5.20;4.20;;;17.50;97.00;;;;;;5073882;28;20524;-72
2023/09/28 04:03:05;;;;;;;4.22;3.92;;;17.50;97.60;;;;;;5072126;28;20890;-73
2023/09/28 04:05:32;;;;;;;4.45;3.90;;;17.50;97.80;;;;;;5064392;28;20741;-72
2023/09/28 04:07:59;;;;;;;4.60;4.20;;;17.50;98.20;;;;;;5066567;28;20426;-73
2023/09/28 04:10:26;;;;;;;4.70;4.30;;;17.50;97.80;;;;;;5066493;28;20477;-72
2023/09/28 04:12:53;;;;;;;4.50;4.10;;;17.50;98.40;;;;;;5067442;28;20526;-76
2023/09/28 04:15:22;;;;;;;4.90;4.40;;;17.40;98.00;;;;;;5067062;28;20762;-72
2023/09/28 04:17:49;;;;;;;4.80;4.40;;;17.40;98.10;;;;;;5070521;28;20495;-73
2023/09/28 04:20:16;;;;;;;4.45;4.15;;;17.40;98.00;;;;;;5063116;28;20451;-72
2023/09/28 04:22:43;;;;;;;4.82;4.43;;;17.40;98.00;;;;;;5066640;28;20499;-72
2023/09/28 04:25:11;;;;;;;4.75;4.25;;;17.40;97.80;;;;;;5072067;28;20775;-73
2023/09/28 04:27:38;;;;;;;5.35;4.53;;;17.40;97.90;;;;;;5075566;28;20434;-74
2023/09/28 04:30:08;;;;;;;5.32;4.82;;;17.40;98.30;;;;;;5075310;28;20437;-73
2023/09/28 04:32:36;;;;;;;5.32;4.60;;;17.40;97.90;;;;;;5066035;28;20523;-72
2023/09/28 04:35:06;;;;;;;5.53;4.90;;;17.30;97.90;;;;;;5071732;28;20430;-72
2023/09/28 04:37:32;;;;;;;5.60;5.10;;;17.30;98.00;;;;;;5068436;28;20498;-73
2023/09/28 04:39:59;;;;;;;5.07;4.53;;;17.30;98.20;;;;;;5069881;28;20436;-72
2023/09/28 04:42:26;;;;;;;5.50;4.90;;;17.30;98.30;;;;;;5071889;28;21003;-74
2023/09/28 04:44:53;;;;;;;5.70;5.20;;;17.30;98.40;;;;;;5075170;28;20433;-72
2023/09/28 04:47:20;;;;;;;5.97;5.20;;;17.30;98.60;;;;;;5068614;28;20928;-67
2023/09/28 04:49:48;;;;;;;5.97;5.40;;;17.20;98.30;;;;;;5069508;28;20469;-67
2023/09/28 04:52:17;;;;;;;5.75;5.15;;;17.20;98.20;;;;;;5076116;28;20431;-67
2023/09/28 04:54:44;;;;;;;5.20;4.70;;;17.20;98.30;;;;;;5066505;28;20510;-68
2023/09/28 04:57:11;;;;;;;5.70;5.20;;;17.20;98.40;;;;;;5065288;28;20457;-72
2023/09/28 04:59:38;;;;;;;5.45;4.93;;;17.20;98.50;;;;;;5071429;28;20425;-71
2023/09/28 05:02:07;;;;;;;6.10;4.85;;;17.20;98.50;;;;;;5074132;28;20428;-71
2023/09/28 05:04:34;;;;;;;6.28;5.22;;;17.20;98.50;;;;;;5074651;28;20536;-73
2023/09/28 05:07:04;;;;;;;5.72;5.07;;;17.20;98.60;;;;;;5079205;28;20517;-73
2023/09/28 05:09:30;;;;;;;5.53;5.03;;;17.20;98.60;;;;;;5075587;28;20429;-72
2023/09/28 05:11:59;;;;;;;5.47;4.97;;;17.10;98.80;;;;;;5068158;28;20834;-72
2023/09/28 05:14:26;;;;;;;5.78;4.65;;;17.10;98.90;;;;;;5072830;28;20474;-72
2023/09/28 05:16:53;;;;;;;5.30;4.80;;;17.10;98.90;;;;;;5069616;28;20551;-72
2023/09/28 05:19:21;;;;;;;5.93;5.20;;;17.10;99.30;;;;;;5063526;28;20515;-72
2023/09/28 05:21:48;;;;;;;5.63;5.13;;;17.00;99.40;;;;;;5069324;28;20429;-72
2023/09/28 05:24:16;;;;;;;5.97;5.38;;;17.00;99.40;;;;;;5069562;28;20435;-71
2023/09/28 05:26:43;;;;;;;5.60;5.10;;;17.00;99.50;;;;;;5069467;28;20437;-72
2023/09/28 05:29:10;;;;;;;5.30;4.80;;;17.00;99.70;;;;;;5067975;28;20711;-71
2023/09/28 05:31:37;;;;;;;5.32;4.82;;;17.00;99.70;;;;;;5071570;28;20490;-72
2023/09/28 05:34:04;;;;;;;5.50;4.90;;;16.90;99.90;;;;;;5071351;28;20427;-72
2023/09/28 05:36:31;;;;;;;6.38;5.70;;;17.00;99.90;;;;;;5065429;28;20428;-72
2023/09/28 05:38:57;;;;;;;5.60;5.10;;;16.90;99.90;;;;;;5063905;28;20427;-72
2023/09/28 05:41:25;;;;;;;5.90;5.30;;;16.90;99.90;;;;;;5073992;28;20482;-72
2023/09/28 05:43:52;;;;;;;6.05;5.45;;;16.90;99.90;;;;;;5066039;28;20862;-72
2023/09/28 05:46:19;;;;;;;5.65;5.20;;;16.90;99.90;;;;;;5065266;28;20602;-72
2023/09/28 05:48:47;;;;;;;5.80;5.30;;;16.90;99.90;;;;;;5077998;28;20438;-72
2023/09/28 05:51:14;;;;;;;6.07;5.47;;;16.90;99.90;;;;;;5065626;28;20498;-71
2023/09/28 05:53:41;;;;;;;6.80;6.10;;;16.90;99.90;;;;;;5074674;28;20452;-72
2023/09/28 05:56:08;;;;;;;5.97;5.30;;;16.90;99.90;;;;;;5075245;28;20447;-72
2023/09/28 05:58:36;;;;;;;6.28;5.68;;;16.80;99.90;;;;;;5071268;28;20421;-72
2023/09/28 06:01:07;;;;;;;6.53;5.93;;;16.80;99.90;;;;;;5074759;28;20874;-72
2023/09/28 06:03:35;;;;;;;6.80;6.20;;;16.90;99.90;;;;;;5069062;28;20427;-70
2023/09/28 06:06:11;;;;;;;6.63;5.93;;;16.90;99.90;;;;;;5080580;28;20433;-71
2023/09/28 06:08:39;;;;;;;7.93;6.47;;;16.90;99.90;;;;;;5072739;28;20427;-71
2023/09/28 06:11:05;;;;;;;6.15;5.55;;;16.90;99.90;;;;;;5076872;28;20437;-72
2023/09/28 06:13:32;;;;;;;6.05;5.55;;;16.90;99.90;;;;;;5073816;28;20474;-73
2023/09/28 06:16:00;;;;;;;6.53;5.93;;;16.90;99.90;;;;;;5070411;28;20415;-72
2023/09/28 06:18:27;;;;;;;7.25;5.50;;;16.90;99.90;;;;;;5077620;28;20446;-72
2023/09/28 06:20:54;;;;;;;6.20;5.70;;;17.00;99.90;;;;;;5070685;28;20434;-71
2023/09/28 06:23:21;;;;;;;6.40;5.80;;;17.00;99.90;;;;;;5074921;28;20924;-72
2023/09/28 06:25:48;;;;;;;6.68;5.97;;;17.00;99.90;;;;;;5066398;28;20897;-72
2023/09/28 06:28:14;;;;;;;6.60;6.00;;;17.00;99.90;;;;;;5074300;28;20439;-71
2023/09/28 06:30:41;;;;;;;5.50;5.00;;;17.10;99.90;;;;;;5069465;28;20443;-72
2023/09/28 06:33:09;;;;;;;6.65;5.93;;;17.10;99.90;;;;;;5073389;28;20421;-73
2023/09/28 06:35:36;;;;;;;6.45;5.72;;;17.10;99.90;;;;;;5074439;28;20834;-71
2023/09/28 06:38:03;;;;;;;5.90;5.40;;;17.10;99.90;;;;;;5071262;28;20437;-72
2023/09/28 06:40:30;;;;;;;5.75;5.25;;;17.10;99.90;;;;;;5065034;28;20502;-72
2023/09/28 06:42:57;;;;;;;6.10;5.50;;;17.20;99.90;;;;;;5075030;28;20485;-71
2023/09/28 06:45:23;;;;;;;5.80;5.30;;;17.20;99.90;;;;;;5073510;28;20438;-72
2023/09/28 06:47:52;;;;;;;5.90;5.40;;;17.20;99.90;;;;;;5067836;28;20431;-71
2023/09/28 06:50:20;;;;;;;6.68;6.07;;;17.30;99.90;;;;;;5070432;28;20491;-71
2023/09/28 06:52:46;;;;;;;7.43;5.63;;;17.30;99.90;;;;;;5084942;28;20887;-72
2023/09/28 06:55:14;;;;;;;6.87;5.93;;;17.40;99.90;;;;;;5074707;28;20450;-71
2023/09/28 06:57:40;;;;;;;5.65;5.10;;;17.50;99.90;;;;;;5077397;28;20433;-71
2023/09/28 07:00:09;;;;;;;6.00;5.40;;;17.50;99.90;;;;;;5069741;28;20440;-71
2023/09/28 07:02:35;;;;;;;6.03;5.43;;;17.60;99.90;;;;;;5075008;28;20515;-71
2023/09/28 07:05:03;;;;;;;6.35;5.75;;;17.70;99.60;;;;;;5070480;28;20431;-71
2023/09/28 07:07:31;;;;;;;5.77;5.27;;;17.70;99.70;;;;;;5072702;28;20435;-70
2023/09/28 07:09:58;;;;;;;6.15;5.55;;;17.80;99.70;;;;;;5075631;28;20444;-71
2023/09/28 07:12:24;;;;;;;6.20;5.20;;;17.90;99.90;;;;;;5063650;28;20422;-71
2023/09/28 07:14:51;;;;;;;6.78;5.38;;;18.00;99.10;;;;;;5070873;28;20431;-71
2023/09/28 07:17:18;;;;;;;6.10;5.40;;;18.00;99.10;;;;;;5078290;28;20439;-71
2023/09/28 07:19:45;;;;;;;6.25;5.65;;;18.10;98.80;;;;;;5071911;28;20494;-71
2023/09/28 07:22:12;;;;;;;7.30;5.30;;;18.20;98.20;;;;;;5076608;28;20425;-71
2023/09/28 07:24:40;;;;;;;5.80;5.25;;;18.40;98.00;;;;;;5070782;28;20505;-72
2023/09/28 07:27:07;;;;;;;6.53;5.82;;;18.50;97.70;;;;;;5080557;28;20746;-71
2023/09/28 07:29:34;;;;;;;7.63;5.57;;;18.60;96.90;;;;;;5069679;28;20425;-72
2023/09/28 07:32:01;;;;;;;7.40;5.70;;;18.80;96.50;;;;;;5073952;28;20517;-72
2023/09/28 07:34:27;;;;;;;6.88;5.25;;;18.90;95.70;;;;;;5068921;28;20437;-72
2023/09/28 07:36:54;;;;;;;5.60;4.97;;;19.10;95.30;;;;;;5068957;28;20494;-71
2023/09/28 07:39:21;;;;;;;5.30;4.80;;;19.20;94.90;;;;;;5067303;28;20519;-70
2023/09/28 07:41:51;;;;;;;6.05;4.90;;;19.40;94.20;;;;;;5075049;28;20433;-71
2023/09/28 07:44:18;;;;;;;6.05;5.55;;;19.50;93.70;;;;;;5073738;28;20431;-71
2023/09/28 07:46:45;;;;;;;5.90;5.30;;;19.70;93.30;;;;;;5069456;28;20645;-72
2023/09/28 07:49:14;;;;;;;5.35;4.85;;;19.80;92.80;;;;;;5071587;28;20426;-73
2023/09/28 07:51:41;;;;;;;5.55;5.05;;;19.90;92.20;;;;;;5068117;28;20499;-71
2023/09/28 07:54:07;;;;;;;7.30;5.60;;;20.00;91.30;;;;;;5070807;28;20838;-71
2023/09/28 07:56:34;;;;;;;6.10;5.20;;;20.10;91.20;;;;;;5068233;28;20430;-73
2023/09/28 07:59:02;;;;;;;5.65;5.00;;;20.10;91.30;;;;;;5070622;28;20414;-73
2023/09/28 08:01:29;;;;;;;7.28;5.07;;;20.10;91.10;;;;;;5072559;28;20838;-74
2023/09/28 08:03:56;;;;;;;6.70;4.60;;;20.30;91.00;;;;;;5073262;28;20486;-73
2023/09/28 08:06:22;;;;;;;5.60;4.63;;;20.40;90.90;;;;;;5067353;28;20441;-73
2023/09/28 08:08:49;;;;;;;6.75;4.90;;;20.50;90.60;;;;;;5068586;28;20444;-73
2023/09/28 08:11:16;;;;;;;4.60;3.90;;;20.70;90.70;;;;;;5071277;28;20501;-73
2023/09/28 08:13:43;;;;;;;5.13;4.20;;;20.90;89.40;;;;;;5071254;28;20431;-73
2023/09/28 08:16:12;;;;;;;5.65;3.92;;;21.00;88.90;;;;;;5065053;28;20491;-72
2023/09/28 08:18:39;;;;;;;5.15;4.30;;;21.00;89.10;;;;;;5072930;28;20890;-73
2023/09/28 08:21:06;;;;;;;5.13;4.17;;;21.10;89.00;;;;;;5068752;28;20472;-73
2023/09/28 08:23:33;;;;;;;5.00;4.10;;;21.20;88.20;;;;;;5072276;28;20423;-73
2023/09/28 08:25:59;;;;;;;5.07;4.55;;;21.30;87.70;;;;;;5075116;28;20485;-73
2023/09/28 08:28:26;;;;;;;5.95;4.50;;;21.50;87.80;;;;;;5064768;28;20435;-73
2023/09/28 08:30:54;;;;;;;5.38;4.30;;;21.60;87.30;;;;;;5072431;28;20430;-73
2023/09/28 08:33:22;;;;;;;6.00;4.10;;;21.60;87.40;;;;;;5081187;28;20992;-73
2023/09/28 08:35:49;;;;;;;5.45;4.00;;;21.70;87.00;;;;;;5070877;28;20519;-73
2023/09/28 08:38:16;;;;;;;5.80;4.10;;;21.70;87.00;;;;;;5067349;28;20530;-72
2023/09/28 08:40:42;;;;;;;6.03;4.30;;;21.80;86.90;;;;;;5066649;28;20992;-73
2023/09/28 08:43:12;;;;;;;6.00;3.85;;;21.70;87.00;;;;;;5073905;28;20416;-73
2023/09/28 08:45:40;;;;;;;4.55;3.80;;;21.70;88.40;;;;;;5070148;28;20451;-72
2023/09/28 08:48:11;;;;;;;4.45;4.03;;;21.80;88.30;;;;;;5066474;28;20427;-73
2023/09/28 08:50:40;;;;;;;4.50;3.70;;;21.90;87.50;;;;;;5070365;28;20515;-73
2023/09/28 08:53:07;;;;;;;4.78;3.83;;;22.00;87.50;;;;;;5078334;28;21009;-73
2023/09/28 08:55:35;;;;;;;5.40;3.80;;;22.10;86.90;;;;;;5077559;28;20426;-74
2023/09/28 08:58:03;;;;;;;5.00;4.18;;;22.20;86.70;;;;;;5069598;28;20416;-74
2023/09/28 09:00:30;;;;;;;5.50;4.65;;;22.40;85.70;;;;;;5064297;28;20454;-73
2023/09/28 09:02:58;;;;;;;6.38;4.40;;;22.50;85.80;;;;;;5077732;28;20462;-73
2023/09/28 09:05:29;;;;;;;5.00;4.00;;;22.70;84.50;;;;;;5069701;28;20947;-73
2023/09/28 09:07:58;;;;;;;5.15;4.30;;;22.70;83.60;;;;;;5064168;28;20722;-73
2023/09/28 09:10:27;;;;;;;7.38;3.80;;;22.60;83.50;;;;;;5069765;28;20427;-73
2023/09/28 09:12:55;;;;;;;4.45;3.60;;;22.40;83.90;;;;;;5072521;28;20895;-73
2023/09/28 09:15:21;;;;;;;5.50;3.50;;;22.30;84.70;;;;;;5074349;28;20531;-73
2023/09/28 09:17:48;;;;;;;4.88;4.00;;;22.20;85.10;;;;;;5073451;28;20417;-73
2023/09/28 09:20:15;;;;;;;8.48;3.90;;;22.10;85.30;;;;;;5071349;28;20412;-74
2023/09/28 09:22:41;;;;;;;4.85;3.60;;;22.10;85.80;;;;;;5066388;28;20432;-72
2023/09/28 09:25:10;;;;;;;5.22;4.13;;;22.10;85.90;;;;;;5069667;28;20435;-73
2023/09/28 09:27:36;;;;;;;5.82;4.43;;;22.10;85.80;;;;;;5066876;28;20429;-75
2023/09/28 09:30:08;;;;;;;6.63;3.95;;;22.20;86.50;;;;;;5074042;28;20490;-76
2023/09/28 09:32:37;;;;;;;5.63;4.18;;;22.50;84.90;;;;;;5068956;28;20439;-74
2023/09/28 09:35:04;;;;;;;5.50;4.60;;;22.80;84.90;;;;;;5069261;28;20429;-74
2023/09/28 09:37:31;;;;;;;6.38;4.43;;;23.00;83.20;;;;;;5069422;28;20766;-74
2023/09/28 09:40:11;;;;;;;6.13;3.80;;;23.20;82.10;;;;;;5082284;28;20429;-74
2023/09/28 09:42:38;;;;;;;4.68;3.75;;;23.20;79.70;;;;;;5077499;28;20425;-74
2023/09/28 09:45:07;;;;;;;5.28;4.20;;;23.20;80.60;;;;;;5070465;28;20427;-74
2023/09/28 09:47:34;;;;;;;4.60;3.80;;;23.30;80.00;;;;;;5078092;28;20563;-75
2023/09/28 09:50:01;;;;;;;6.88;3.92;;;23.40;79.00;;;;;;5069321;28;20480;-74
2023/09/28 09:52:30;;;;;;;5.13;4.30;;;23.50;78.40;;;;;;5076731;28;20940;-74
2023/09/28 09:54:57;;;;;;;5.80;4.28;;;23.50;78.30;;;;;;5075394;28;20927;-74
2023/09/28 09:57:27;;;;;;;6.05;4.90;;;23.40;78.50;;;;;;5075606;28;20454;-74
2023/09/28 09:59:54;;;;;;;5.60;4.70;;;23.30;78.90;;;;;;5075684;28;20912;-74
2023/09/28 10:02:25;;;;;;;5.40;4.90;;;23.20;79.30;;;;;;5079079;28;20431;-74
2023/09/28 10:04:54;;;;;;;6.40;4.90;;;23.00;79.60;;;;;;5075468;28;20433;-74
2023/09/28 10:07:25;;;;;;;5.35;4.40;;;23.10;80.10;;;;;;5073204;28;20480;-74
2023/09/28 10:09:54;;;;;;;8.25;4.60;;;23.00;80.60;;;;;;5078082;28;20618;-74
2023/09/28 10:12:21;;;;;;;6.32;4.60;;;23.00;81.10;;;;;;5071903;28;20451;-74
2023/09/28 10:14:49;;;;;;;6.57;4.15;;;22.90;80.30;;;;;;5077937;28;20442;-74
2023/09/28 10:17:17;;;;;;;5.38;4.15;;;22.80;80.60;;;;;;5071603;28;20422;-74
2023/09/28 10:19:44;;;;;;;5.57;4.10;;;22.80;81.20;;;;;;5070023;28;20906;-76
2023/09/28 10:22:12;;;;;;;5.80;4.05;;;22.80;81.50;;;;;;5077312;28;20423;-75
2023/09/28 10:24:39;;;;;;;5.40;4.30;;;22.90;82.30;;;;;;5082784;28;20565;-74
2023/09/28 10:27:10;;;;;;;7.18;4.22;;;23.00;81.00;;;;;;5073624;28;20427;-74
2023/09/28 10:29:39;;;;;;;5.22;3.85;;;23.10;80.40;;;;;;5071189;28;20447;-74
2023/09/28 10:32:14;;;;;;;5.18;3.70;;;23.20;80.20;;;;;;5069201;28;20820;-74
2023/09/28 10:34:45;;;;;;;3.70;3.30;;;23.40;79.90;;;;;;5070823;28;20414;-67
2023/09/28 10:37:19;;;;;;;4.68;3.40;;;23.50;79.10;;;;;;5066026;28;20415;-69
2023/09/28 10:39:49;;;;;;;4.65;3.72;;;23.70;78.20;;;;;;5071704;28;20426;-68
2023/09/28 10:42:17;;;;;;;5.27;3.77;;;23.90;77.10;;;;;;5073264;28;20455;-68
2023/09/28 10:44:47;;;;;;;5.05;3.45;;;24.10;75.90;;;;;;5070990;28;20443;-68
2023/09/28 10:47:15;;;;;;;4.00;3.47;;;24.20;75.50;;;;;;5069728;28;20976;-67
2023/09/28 10:49:41;;;;;;;6.97;3.63;;;24.30;74.50;;;;;;5068643;28;20425;-68
2023/09/28 10:52:10;;;;;;;6.38;4.93;;;24.20;73.60;;;;;;5063599;28;20404;-67
2023/09/28 10:54:37;;;;;;;8.25;6.40;;;24.20;75.40;;;;;;5064811;28;20431;-70
2023/09/28 10:57:05;;;;;;;24.90;22.83;;;24.40;75.50;;;;;;5071726;28;20853;-70
2023/09/28 10:59:32;;;;;;;15.15;13.85;;;24.70;72.60;;;;;;5064516;28;20490;-67
2023/09/28 11:02:01;;;;;;;5.18;3.45;;;25.00;70.70;;;;;;5072874;28;20432;-67
2023/09/28 11:04:30;;;;;;;6.18;5.55;;;25.10;70.30;;;;;;5066919;28;20434;-69
2023/09/28 11:06:57;;;;;;;6.15;3.38;;;25.20;70.30;;;;;;5074226;28;20608;-68
2023/09/28 11:09:29;;;;;;;4.30;3.40;;;25.40;67.70;;;;;;5071488;28;20426;-67
2023/09/28 11:11:55;;;;;;;6.65;5.80;;;25.40;68.40;;;;;;5073327;28;20436;-68
2023/09/28 11:14:25;;;;;;;6.90;4.53;;;25.50;70.10;;;;;;5072710;28;20487;-68
2023/09/28 11:16:52;;;;;;;6.10;4.80;;;25.70;68.00;;;;;;5076267;28;20531;-67
2023/09/28 11:19:19;;;;;;;5.60;3.10;;;25.90;68.10;;;;;;5076881;28;20493;-67
2023/09/28 11:21:47;;;;;;;4.20;3.30;;;26.00;65.50;;;;;;5071895;28;20475;-68
2023/09/28 11:24:14;;;;;;;5.35;3.83;;;26.10;64.60;;;;;;5072409;28;20852;-68
2023/09/28 11:26:42;;;;;;;4.13;3.20;;;26.10;65.50;;;;;;5070039;28;20565;-67
2023/09/28 11:29:10;;;;;;;4.90;3.10;;;26.00;66.60;;;;;;5071629;28;20426;-68
2023/09/28 11:31:48;;;;;;;5.20;4.00;;;26.00;66.70;;;;;;5076113;28;20520;-68
2023/09/28 11:34:15;;;;;;;4.40;3.40;;;26.10;67.10;;;;;;5069738;28;20930;-68
2023/09/28 11:36:41;;;;;;;5.20;3.60;;;26.00;66.90;;;;;;5069706;28;20459;-68
2023/09/28 11:39:13;;;;;;;5.38;3.55;;;25.90;67.30;;;;;;5073182;28;20753;-67
2023/09/28 11:41:58;;;;;;;55.67;49.88;;;25.90;67.50;;;;;;5076009;28;20425;-67
2023/09/28 11:44:27;;;;;;;128.18;115.75;;;25.90;68.40;;;;;;5070396;28;20889;-65
2023/09/28 11:46:54;;;;;;;51.47;46.25;;;25.90;68.30;;;;;;5075214;28;20431;-68
2023/09/28 11:49:22;;;;;;;30.10;27.08;;;25.90;68.00;;;;;;5066765;28;20439;-70
2023/09/28 11:51:52;;;;;;;24.27;21.70;;;26.10;67.80;;;;;;5072772;28;20438;-68
2023/09/28 11:54:21;;;;;;;17.90;16.15;;;26.30;66.70;;;;;;5067945;28;20794;-66
2023/09/28 11:56:49;;;;;;;18.05;16.13;;;26.60;65.40;;;;;;5074303;28;20425;-66
2023/09/28 11:59:16;;;;;;;14.13;12.73;;;26.80;64.80;;;;;;5094945;22;20499;-74
2023/09/28 12:01:43;;;;;;;13.93;12.55;;;27.00;63.60;;;;;;5080700;28;20421;-72
2023/09/28 12:04:10;;;;;;;7.53;6.78;;;27.00;62.80;;;;;;5086644;28;20429;-72
2023/09/28 12:06:38;;;;;;;7.88;7.18;;;27.00;62.50;;;;;;5084193;28;20521;-73
2023/09/28 12:09:06;;;;;;;10.60;7.70;;;27.10;62.40;;;;;;5088202;28;20430;-73
2023/09/28 12:11:37;;;;;;;5.07;4.28;;;27.10;63.60;;;;;;5077313;28;20432;-74
2023/09/28 12:14:03;;;;;;;6.47;5.78;;;27.20;62.30;;;;;;5083685;28;20507;-73
2023/09/28 12:16:30;;;;;;;6.93;5.17;;;27.20;62.90;;;;;;5074060;28;20462;-74
2023/09/28 12:18:57;;;;;;;4.95;4.45;;;27.20;61.70;;;;;;5070902;28;20435;-73
2023/09/28 12:21:24;;;;;;;4.95;4.43;;;27.10;62.20;;;;;;5075252;28;20436;-73
2023/09/28 12:23:50;;;;;;;6.32;4.80;;;27.00;62.70;;;;;;5069034;28;20937;-73
2023/09/28 12:26:17;;;;;;;5.78;4.38;;;27.10;63.40;;;;;;5077649;28;20431;-74
2023/09/28 12:28:46;;;;;;;6.03;5.10;;;27.20;62.20;;;;;;5070623;28;21014;-75
2023/09/28 12:31:12;;;;;;;4.75;4.18;;;27.20;62.40;;;;;;5078025;28;20513;-75
2023/09/28 12:33:40;;;;;;;5.50;4.18;;;27.20;62.50;;;;;;5079023;28;21004;-74
2023/09/28 12:36:09;;;;;;;5.60;3.97;;;27.30;61.80;;;;;;5074490;28;20795;-74
2023/09/28 12:38:36;;;;;;;4.60;3.10;;;27.30;61.60;;;;;;5079125;28;20500;-76
2023/09/28 12:41:04;;;;;;;4.97;3.33;;;27.40;58.90;;;;;;5075933;28;20435;-75
2023/09/28 12:43:32;;;;;;;3.58;2.72;;;27.40;60.00;;;;;;5079696;28;20441;-75
2023/09/28 12:46:00;;;;;;;4.10;3.60;;;27.30;59.60;;;;;;5086323;28;20487;-73